Time;durP1;ratioP1;P1;durP2;ratioP2;P2;SDS_P1;SDS_P2;PMS_P1;PMS_P2;Temp;Humidity;BMP_temperature;BMP_pressure;BME280_temperature;BME280_humidity;BME280_pressure;Samples;Min_cycle;Max_cycle;Signal;HPM_P1;HPM_P2
2022/08/08 00:00:01;;;;;;;13.05;11.95;;;;;;;19.66;78.96;92921.91;5037094;28;20237;-71
2022/08/08 00:02:49;;;;;;;12.35;11.35;;;;;;;19.95;78.57;92950.97;5036326;28;20204;-71
2022/08/08 00:05:26;;;;;;;13.90;12.52;;;;;;;19.93;78.68;92960.31;5039654;28;20219;-71
2022/08/08 00:08:12;;;;;;;12.82;11.82;;;;;;;19.86;78.56;92958.19;5040022;28;20217;-71
2022/08/08 00:10:47;;;;;;;12.57;11.60;;;;;;;19.69;79.26;92963.66;5034988;28;20253;-70
2022/08/08 00:13:38;;;;;;;13.35;11.90;;;;;;;19.54;79.89;92961.63;5039390;28;20191;-71
2022/08/08 00:16:06;;;;;;;12.82;11.82;;;;;;;19.66;79.73;92952.97;5036331;28;20214;-70
2022/08/08 00:18:48;;;;;;;12.63;11.57;;;;;;;19.83;79.76;92953.56;5037971;28;20192;-71
2022/08/08 00:21:19;;;;;;;14.40;12.95;;;;;;;19.80;79.63;92953.44;5041108;28;20193;-71
2022/08/08 00:23:51;;;;;;;12.95;11.65;;;;;;;19.60;80.54;92955.00;5040373;28;20238;-72
2022/08/08 00:26:30;;;;;;;13.02;11.90;;;;;;;19.56;80.68;92959.44;5036977;28;20228;-71
2022/08/08 00:29:05;;;;;;;13.18;12.00;;;;;;;19.51;81.51;92969.44;5037106;28;20240;-71
2022/08/08 00:31:37;;;;;;;14.00;12.70;;;;;;;19.46;81.47;92965.09;5037526;28;20216;-71
2022/08/08 00:37:00;;;;;;;14.20;13.10;;;;;;;19.11;82.16;92947.91;5014689;28;20210;-70
2022/08/08 00:39:39;;;;;;;13.85;12.65;;;;;;;19.07;81.69;92920.50;5039447;28;20292;-72
2022/08/08 00:42:45;;;;;;;13.90;12.77;;;;;;;19.51;81.17;92972.84;5036588;28;20263;-71
2022/08/08 00:45:36;;;;;;;12.70;11.48;;;;;;;19.40;81.21;92939.91;4971582;28;20245;-71
2022/08/08 00:48:20;;;;;;;13.65;12.43;;;;;;;19.42;81.28;92969.50;5038109;28;20245;-71
2022/08/08 00:50:54;;;;;;;12.38;11.27;;;;;;;19.48;80.90;92967.44;5038113;28;20686;-71
2022/08/08 00:53:25;;;;;;;13.13;12.10;;;;;;;19.45;81.11;92968.88;5036733;28;20197;-72
2022/08/08 00:56:16;;;;;;;12.32;11.40;;;;;;;19.39;81.49;92964.06;5033569;28;20193;-71
2022/08/08 00:59:43;;;;;;;12.68;11.60;;;;;;;19.43;80.99;92967.63;5038201;28;20260;-71
2022/08/08 01:02:08;;;;;;;13.35;12.02;;;;;;;19.47;80.71;92966.66;5037885;28;20205;-71
2022/08/08 01:05:07;;;;;;;12.50;11.38;;;;;;;19.48;80.64;92970.88;5037707;28;20238;-72
2022/08/08 01:08:00;;;;;;;12.88;11.85;;;;;;;19.45;80.65;92960.91;5037681;28;20241;-71
2022/08/08 01:10:32;;;;;;;13.23;12.00;;;;;;;19.42;81.10;92964.22;5037475;28;20310;-71
2022/08/08 01:13:23;;;;;;;13.23;12.15;;;;;;;19.35;81.80;92968.47;5038544;28;20182;-71
2022/08/08 01:16:03;;;;;;;13.80;12.43;;;;;;;19.36;81.95;92965.50;5009230;28;20218;-72
2022/08/08 01:18:48;;;;;;;13.77;12.52;;;;;;;19.38;81.73;92967.84;5035051;28;20204;-71
2022/08/08 01:21:23;;;;;;;14.68;11.93;;;;;;;19.31;82.19;92968.34;5037529;28;20186;-72
2022/08/08 01:23:54;;;;;;;12.53;11.43;;;;;;;19.29;82.87;92973.19;5037548;28;20237;-72
2022/08/08 01:26:26;;;;;;;13.05;12.02;;;;;;;19.29;82.43;92975.03;5041615;28;20196;-72
2022/08/08 01:29:24;;;;;;;13.80;12.73;;;;;;;19.17;82.97;92973.09;5038549;28;20758;-71
2022/08/08 01:32:14;;;;;;;13.23;12.27;;;;;;;19.23;82.75;92977.09;5041039;28;20269;-71
2022/08/08 01:35:02;;;;;;;13.55;12.43;;;;;;;19.17;82.94;92976.50;5040449;28;20226;-72
2022/08/08 01:37:52;;;;;;;12.90;12.00;;;;;;;19.11;83.59;92988.38;5040642;28;20228;-71
2022/08/08 01:40:41;;;;;;;12.68;11.60;;;;;;;19.22;82.63;92985.34;5040196;28;20777;-71
2022/08/08 01:43:31;;;;;;;12.57;11.50;;;;;;;19.04;84.71;92997.91;5042938;28;20197;-71
2022/08/08 01:46:38;;;;;;;13.27;12.20;;;;;;;19.14;83.69;93005.50;5037379;28;20210;-72
2022/08/08 01:49:34;;;;;;;13.13;12.10;;;;;;;19.01;83.95;93003.84;5029125;28;20247;-71
2022/08/08 01:52:11;;;;;;;14.33;13.03;;;;;;;19.09;83.84;93003.81;5040921;28;20200;-71
2022/08/08 01:54:54;;;;;;;13.95;12.65;;;;;;;19.08;83.64;92993.53;5039510;28;20229;-71
2022/08/08 01:57:37;;;;;;;14.27;13.00;;;;;;;18.94;84.30;92991.13;5042023;28;20188;-71
2022/08/08 02:00:30;;;;;;;14.73;13.53;;;;;;;18.91;84.09;92988.34;5039959;28;20225;-71
2022/08/08 02:02:58;;;;;;;14.32;13.13;;;;;;;18.86;84.82;92989.28;5041691;28;20197;-71
2022/08/08 02:05:39;;;;;;;13.88;12.68;;;;;;;18.90;84.99;92992.06;5040981;28;20225;-71
2022/08/08 02:08:13;;;;;;;14.23;13.10;;;;;;;18.59;85.30;92965.16;5042499;28;20225;-71
2022/08/08 02:10:41;;;;;;;13.37;12.07;;;;;;;18.77;85.00;92979.88;5039465;28;20231;-71
2022/08/08 02:13:58;;;;;;;14.30;12.93;;;;;;;18.76;84.27;92979.09;5040852;28;20183;-72
2022/08/08 02:16:36;;;;;;;13.53;12.33;;;;;;;18.91;83.91;92980.41;4998813;28;20257;-71
2022/08/08 02:19:25;;;;;;;13.37;12.33;;;;;;;18.80;84.73;92984.53;5040479;28;20240;-71
2022/08/08 02:22:30;;;;;;;14.70;13.50;;;;;;;18.91;84.13;92988.34;5038302;28;20192;-70
2022/08/08 02:25:14;;;;;;;13.53;12.43;;;;;;;18.88;84.49;92991.59;5042973;28;20243;-71
2022/08/08 02:28:06;;;;;;;13.90;12.57;;;;;;;19.05;83.60;92994.94;5038900;28;20232;-71
2022/08/08 02:31:09;;;;;;;13.32;12.23;;;;;;;18.95;83.41;92992.69;5038003;28;20229;-71
2022/08/08 02:33:38;;;;;;;13.27;12.27;;;;;;;19.02;83.24;92987.66;5039160;28;20193;-71
2022/08/08 02:36:45;;;;;;;14.00;12.80;;;;;;;19.22;82.71;93002.03;5037944;28;20279;-71
2022/08/08 02:39:32;;;;;;;13.90;12.70;;;;;;;19.23;82.79;92995.63;5034861;28;20235;-71
2022/08/08 02:42:26;;;;;;;14.75;13.35;;;;;;;19.15;83.29;92999.88;5038959;28;20196;-72
2022/08/08 02:45:15;;;;;;;12.53;11.43;;;;;;;19.10;83.76;93004.56;5037921;28;20261;-70
2022/08/08 02:47:44;;;;;;;13.57;12.53;;;;;;;19.12;83.28;93012.97;5040427;28;20238;-72
2022/08/08 02:50:46;;;;;;;14.45;13.15;;;;;;;19.00;83.70;93010.25;5039011;28;20298;-72
2022/08/08 02:53:49;;;;;;;14.17;12.97;;;;;;;19.15;82.13;93009.69;5040088;28;20211;-72
2022/08/08 02:56:33;;;;;;;14.32;13.02;;;;;;;19.06;82.37;93006.31;5037520;28;20200;-71
2022/08/08 02:59:07;;;;;;;13.73;12.53;;;;;;;19.14;82.17;93008.91;5037532;28;20231;-71
2022/08/08 03:01:52;;;;;;;13.47;12.47;;;;;;;19.13;82.69;93009.22;5039707;28;20212;-72
2022/08/08 03:04:39;;;;;;;14.15;12.95;;;;;;;19.14;82.78;93008.16;5039563;28;20226;-71
2022/08/08 03:07:23;;;;;;;14.77;12.85;;;;;;;19.19;82.70;93013.25;5036828;28;20237;-71
2022/08/08 03:10:25;;;;;;;14.20;12.35;;;;;;;19.15;82.49;93013.13;5038884;28;20264;-71
2022/08/08 03:12:54;;;;;;;13.70;12.60;;;;;;;19.13;82.27;93011.88;5042065;28;20197;-71
2022/08/08 03:15:41;;;;;;;13.73;12.65;;;;;;;19.13;82.49;93015.28;5038634;28;20221;-71
2022/08/08 03:18:36;;;;;;;13.85;12.32;;;;;;;19.13;82.17;93019.81;5036283;28;20194;-71
2022/08/08 03:21:01;;;;;;;13.43;12.37;;;;;;;19.11;82.49;93022.03;5003335;28;20225;-71
2022/08/08 03:23:29;;;;;;;15.45;13.93;;;;;;;19.12;82.45;93013.75;5037601;28;20185;-72
2022/08/08 03:25:56;;;;;;;15.07;13.73;;;;;;;19.11;82.76;93016.72;5037499;28;20220;-72
2022/08/08 03:28:36;;;;;;;13.45;12.25;;;;;;;19.13;82.75;93014.50;5040359;28;20219;-72
2022/08/08 03:33:16;;;;;;;14.02;12.93;;;;;;;19.10;82.39;93015.94;5037253;28;20215;-71
2022/08/08 03:33:47;;;;;;;13.05;12.05;;;;;;;19.26;81.99;93018.81;5040728;28;20239;-72
2022/08/08 03:36:16;;;;;;;14.60;13.40;;;;;;;19.25;81.88;93027.84;5039260;28;20222;-72
2022/08/08 03:38:48;;;;;;;13.83;12.57;;;;;;;19.17;81.75;93010.16;5037471;28;20228;-71
2022/08/08 03:41:13;;;;;;;13.70;12.40;;;;;;;19.21;81.81;93026.94;5037342;28;20173;-71
2022/08/08 03:43:38;;;;;;;14.10;12.93;;;;;;;19.03;81.06;92983.13;5041336;28;20233;-72
2022/08/08 03:46:05;;;;;;;13.75;12.50;;;;;;;19.43;80.34;93029.31;5038174;28;20205;-70
2022/08/08 03:48:30;;;;;;;15.85;11.55;;;;;;;19.24;80.76;93010.41;5036621;28;20190;-72
2022/08/08 03:50:56;;;;;;;13.25;11.95;;;;;;;19.40;80.41;93011.41;5037201;28;20219;-72
2022/08/08 03:53:21;;;;;;;12.30;11.40;;;;;;;19.49;80.18;93022.72;5039482;28;20177;-71
2022/08/08 03:55:48;;;;;;;13.77;12.48;;;;;;;19.64;79.97;93032.75;5038895;28;20189;-71
2022/08/08 03:58:24;;;;;;;13.67;12.50;;;;;;;19.71;79.60;93029.56;5038787;28;20192;-71
2022/08/08 04:00:54;;;;;;;12.45;11.38;;;;;;;19.82;79.44;93038.69;5039089;28;20206;-71
2022/08/08 04:03:21;;;;;;;14.07;12.88;;;;;;;19.79;79.48;93036.69;5037559;28;20182;-73
2022/08/08 04:05:47;;;;;;;12.65;11.73;;;;;;;19.89;78.81;93038.94;5038453;28;20228;-70
2022/08/08 04:08:23;;;;;;;13.50;12.30;;;;;;;20.05;78.58;93039.88;5039745;28;20220;-70
2022/08/08 04:10:50;;;;;;;12.65;11.63;;;;;;;20.09;78.88;93033.63;5038402;28;20214;-70
2022/08/08 04:13:17;;;;;;;12.82;11.82;;;;;;;20.06;78.50;93036.91;5037055;28;21256;-70
2022/08/08 04:15:43;;;;;;;11.98;10.98;;;;;;;20.14;78.63;93040.63;5038702;28;20230;-72
2022/08/08 04:18:09;;;;;;;13.73;12.48;;;;;;;20.19;78.70;93040.41;5040997;28;20194;-71
2022/08/08 04:20:34;;;;;;;12.95;11.85;;;;;;;20.41;77.77;93053.28;5039569;28;20251;-70
2022/08/08 04:23:00;;;;;;;12.75;11.32;;;;;;;20.41;76.99;93043.47;5037444;28;20225;-70
2022/08/08 04:25:25;;;;;;;12.77;11.77;;;;;;;20.36;78.54;93053.50;5039553;28;20227;-71
2022/08/08 04:27:51;;;;;;;13.15;12.05;;;;;;;20.40;78.53;93057.84;5038716;28;20656;-70
2022/08/08 04:30:17;;;;;;;12.70;11.55;;;;;;;20.44;78.49;93050.78;5040331;28;20253;-70
2022/08/08 04:32:42;;;;;;;13.73;12.45;;;;;;;20.55;78.50;93054.56;5037310;28;20650;-70
2022/08/08 04:35:07;;;;;;;13.70;12.30;;;;;;;20.68;78.12;93050.81;5038199;28;20221;-71
2022/08/08 04:37:33;;;;;;;13.63;12.40;;;;;;;20.44;76.55;93057.94;5038004;28;20201;-74
2022/08/08 04:39:59;;;;;;;13.13;12.02;;;;;;;20.63;76.57;93055.56;5037698;28;20226;-69
2022/08/08 04:42:25;;;;;;;14.32;12.98;;;;;;;20.44;76.21;93026.91;5036020;28;20191;-70
2022/08/08 04:44:53;;;;;;;15.05;12.35;;;;;;;20.70;76.19;93053.91;5035700;28;20343;-69
2022/08/08 04:47:19;;;;;;;13.43;12.23;;;;;;;20.98;75.29;93062.03;5036199;28;20218;-69
2022/08/08 04:49:44;;;;;;;13.57;12.20;;;;;;;21.33;73.86;93062.38;5037431;28;20267;-71
2022/08/08 04:52:10;;;;;;;16.45;14.93;;;;;;;21.36;74.66;93061.72;5031180;28;20183;-70
2022/08/08 04:54:35;;;;;;;14.07;12.98;;;;;;;21.24;75.90;93062.50;5037768;28;20309;-71
2022/08/08 04:57:01;;;;;;;15.23;13.90;;;;;;;21.12;75.13;93030.63;5036459;28;20741;-72
2022/08/08 04:59:26;;;;;;;15.13;13.82;;;;;;;21.40;74.92;93063.38;5037266;28;20224;-71
2022/08/08 05:01:52;;;;;;;16.42;14.93;;;;;;;21.44;74.40;93068.78;5033291;28;20222;-72
2022/08/08 05:04:17;;;;;;;23.60;17.63;;;;;;;21.57;74.54;93063.13;5034156;28;20246;-73
2022/08/08 05:06:43;;;;;;;18.30;16.50;;;;;;;21.51;74.76;93071.69;5034461;28;20224;-71
2022/08/08 05:09:09;;;;;;;18.25;16.50;;;;;;;21.44;74.56;93071.44;5028845;28;20229;-71
2022/08/08 05:11:35;;;;;;;18.08;16.25;;;;;;;21.46;74.75;93071.91;5027137;28;20184;-73
2022/08/08 05:14:00;;;;;;;17.40;15.70;;;;;;;21.47;74.68;93057.50;5028334;28;20236;-74
2022/08/08 05:16:26;;;;;;;16.23;14.68;;;;;;;21.35;75.82;93065.47;5035348;28;20188;-73
2022/08/08 05:18:52;;;;;;;16.05;14.55;;;;;;;21.68;74.99;93069.53;5034400;28;20252;-72
2022/08/08 05:21:17;;;;;;;16.10;14.50;;;;;;;21.85;74.05;93076.53;5033095;28;20185;-72
2022/08/08 05:23:43;;;;;;;14.75;13.45;;;;;;;21.96;72.92;93091.66;5035012;28;20232;-70
2022/08/08 05:26:08;;;;;;;17.10;15.50;;;;;;;22.27;71.48;93085.69;5035266;28;20203;-70
2022/08/08 05:28:33;;;;;;;16.73;15.05;;;;;;;22.01;71.87;93085.31;5033320;28;20200;-69
2022/08/08 05:30:59;;;;;;;15.73;14.32;;;;;;;21.83;72.64;93090.16;5035768;28;20224;-71
2022/08/08 05:33:24;;;;;;;15.70;14.20;;;;;;;21.81;72.63;93073.75;5034157;28;20197;-73
2022/08/08 05:35:52;;;;;;;15.30;14.07;;;;;;;21.93;73.06;93091.56;5033345;28;21022;-72
2022/08/08 05:38:20;;;;;;;15.15;13.85;;;;;;;22.03;71.91;93091.09;5028620;28;20192;-71
2022/08/08 05:40:51;;;;;;;15.35;14.10;;;;;;;22.20;71.39;93090.81;5037366;28;20237;-72
2022/08/08 05:43:25;;;;;;;16.30;14.98;;;;;;;22.27;70.70;93091.03;5037896;28;20196;-72
2022/08/08 05:46:02;;;;;;;15.18;13.95;;;;;;;22.36;70.89;93099.63;5036947;28;20295;-72
2022/08/08 05:48:28;;;;;;;15.40;13.77;;;;;;;22.79;69.01;93097.00;5037233;28;20251;-69
2022/08/08 05:50:54;;;;;;;14.52;13.20;;;;;;;24.08;63.28;93084.47;5035883;28;20186;-73
2022/08/08 05:53:27;;;;;;;15.45;14.00;;;;;;;26.36;57.38;93109.75;5038325;28;20228;-75
2022/08/08 05:55:55;;;;;;;13.45;12.30;;;;;;;27.33;54.11;93109.31;5037364;28;20259;-72
2022/08/08 05:58:29;;;;;;;13.95;12.55;;;;;;;31.43;42.36;93113.81;5037271;28;20190;-73
2022/08/08 06:00:58;;;;;;;12.88;11.63;;;;;;;34.27;35.93;93125.94;5033996;28;20196;-72
2022/08/08 06:03:24;;;;;;;13.80;12.55;;;;;;;35.05;34.10;93128.00;5032844;28;20228;-74
2022/08/08 06:05:53;;;;;;;11.95;10.93;;;;;;;34.53;34.59;93130.53;5035923;28;20576;-72
2022/08/08 06:08:27;;;;;;;11.63;10.57;;;;;;;37.68;29.58;93145.88;5033949;28;20270;-74
2022/08/08 06:10:54;;;;;;;12.57;11.00;;;;;;;37.02;29.10;93148.53;5039557;28;20225;-73
2022/08/08 06:13:20;;;;;;;12.75;10.52;;;;;;;37.92;28.50;93157.19;5035865;28;20219;-73
2022/08/08 06:15:47;;;;;;;12.95;11.45;;;;;;;38.04;27.74;93154.44;5036288;28;20229;-73
2022/08/08 06:18:14;;;;;;;11.32;10.30;;;;;;;38.64;27.17;93146.28;5037536;28;20213;-73
2022/08/08 06:20:41;;;;;;;12.40;11.30;;;;;;;38.10;28.09;93160.91;5040385;28;20260;-72
2022/08/08 06:23:06;;;;;;;12.05;10.95;;;;;;;37.49;28.99;93143.31;5039754;28;20222;-73
2022/08/08 06:25:35;;;;;;;10.48;9.48;;;;;;;38.82;26.37;93152.66;5036683;28;20275;-70
2022/08/08 06:28:11;;;;;;;11.07;10.00;;;;;;;38.89;26.34;93159.84;5038071;28;20206;-69
2022/08/08 06:30:39;;;;;;;11.23;10.32;;;;;;;36.83;28.54;93141.28;5041167;28;20229;-70
2022/08/08 06:33:08;;;;;;;10.73;9.85;;;;;;;32.47;35.74;93134.97;5038376;28;20187;-68
2022/08/08 06:35:35;;;;;;;11.50;10.50;;;;;;;30.71;39.55;93127.25;5036445;28;20237;-71
2022/08/08 06:38:04;;;;;;;13.18;11.85;;;;;;;28.37;46.11;93129.28;5035219;28;20262;-70
2022/08/08 06:40:31;;;;;;;12.68;11.50;;;;;;;27.07;51.11;93122.09;5037678;28;20989;-71
2022/08/08 06:43:03;;;;;;;13.23;11.98;;;;;;;27.02;51.39;93125.84;5039441;28;20258;-70
2022/08/08 06:45:32;;;;;;;13.88;12.68;;;;;;;26.61;52.39;93126.91;5037545;28;20233;-69
2022/08/08 06:47:58;;;;;;;16.08;12.20;;;;;;;25.50;56.09;93124.94;5039362;28;20215;-70
2022/08/08 06:50:25;;;;;;;13.75;12.68;;;;;;;25.51;56.55;93121.13;5038999;28;20257;-70
2022/08/08 06:52:50;;;;;;;13.27;11.98;;;;;;;25.85;54.86;93122.81;5037878;28;20205;-70
2022/08/08 06:55:17;;;;;;;13.57;12.43;;;;;;;25.60;55.34;93110.97;5041111;28;20218;-69
2022/08/08 06:57:42;;;;;;;12.70;11.60;;;;;;;25.22;56.70;93124.44;5038207;28;20214;-69
2022/08/08 07:00:08;;;;;;;12.60;11.10;;;;;;;25.30;53.99;93126.09;5038842;28;20241;-70
2022/08/08 07:02:35;;;;;;;12.68;11.60;;;;;;;25.02;55.21;93136.31;5039193;28;20183;-68
2022/08/08 07:05:05;;;;;;;13.63;12.32;;;;;;;25.19;55.69;93130.50;5038601;28;20226;-68
2022/08/08 07:08:07;;;;;;;13.20;12.10;;;;;;;25.36;54.89;93135.41;5040562;28;20227;-68
2022/08/08 07:10:37;;;;;;;11.93;10.93;;;;;;;25.57;54.86;93135.75;5037728;28;20559;-69
2022/08/08 07:13:06;;;;;;;11.68;10.68;;;;;;;25.64;54.00;93141.22;5041782;28;20228;-69
2022/08/08 07:15:56;;;;;;;11.82;10.68;;;;;;;25.56;54.75;93120.81;5038866;28;20373;-69
2022/08/08 07:18:41;;;;;;;13.00;11.68;;;;;;;25.60;53.47;93139.59;5036893;28;20751;-69
2022/08/08 07:21:07;;;;;;;14.40;11.98;;;;;;;25.02;54.68;93139.75;5038575;28;20261;-68
2022/08/08 07:23:53;;;;;;;13.13;10.95;;;;;;;25.38;53.89;93138.50;5039871;28;20266;-68
2022/08/08 07:26:21;;;;;;;15.18;11.07;;;;;;;25.70;53.56;93139.03;5038623;28;20211;-69
2022/08/08 07:28:47;;;;;;;11.82;10.82;;;;;;;25.53;53.68;93128.78;5038215;28;20257;-68
2022/08/08 07:31:14;;;;;;;12.82;11.63;;;;;;;26.01;49.75;93126.13;5038908;28;20232;-69
2022/08/08 07:33:41;;;;;;;12.43;11.43;;;;;;;25.35;51.79;93122.38;5039732;28;20226;-68
2022/08/08 07:36:08;;;;;;;12.18;11.05;;;;;;;25.90;51.37;93143.16;5033108;28;20190;-68
2022/08/08 07:38:34;;;;;;;11.77;10.73;;;;;;;25.99;50.23;93141.78;5037816;28;20179;-68
2022/08/08 07:41:00;;;;;;;13.98;10.20;;;;;;;26.11;51.62;93144.25;5034058;28;20190;-68
2022/08/08 07:43:31;;;;;;;13.27;10.45;;;;;;;26.19;49.02;93119.13;5041592;28;20189;-70
2022/08/08 07:45:56;;;;;;;10.70;9.82;;;;;;;26.62;46.88;93137.25;5037418;28;20194;-70
2022/08/08 07:48:21;;;;;;;10.27;9.57;;;;;;;26.54;47.64;93118.78;5038104;28;20240;-69
2022/08/08 07:50:47;;;;;;;10.55;9.75;;;;;;;26.44;48.10;93117.53;5037710;28;20210;-69
2022/08/08 07:53:26;;;;;;;11.10;10.20;;;;;;;26.79;46.83;93132.50;5039423;28;20194;-69
2022/08/08 07:55:54;;;;;;;11.15;10.23;;;;;;;26.74;46.19;93120.97;5039664;28;20207;-69
2022/08/08 07:58:22;;;;;;;11.07;10.13;;;;;;;26.83;47.20;93133.31;5037989;28;20223;-71
2022/08/08 08:00:52;;;;;;;10.75;9.88;;;;;;;26.99;46.76;93133.88;5038301;28;20190;-70
2022/08/08 08:03:29;;;;;;;11.20;9.90;;;;;;;27.02;46.89;93133.91;5037657;28;20194;-69
2022/08/08 08:05:56;;;;;;;10.80;9.70;;;;;;;26.87;44.86;93126.06;5034157;28;20245;-69
2022/08/08 08:08:38;;;;;;;11.27;10.23;;;;;;;26.50;44.95;93124.13;5036424;28;20230;-70
2022/08/08 08:11:06;;;;;;;10.15;9.35;;;;;;;26.63;46.34;93128.09;5036834;28;20202;-70
2022/08/08 08:13:48;;;;;;;9.32;8.73;;;;;;;26.99;43.93;93128.50;5038710;28;20187;-72
2022/08/08 08:16:21;;;;;;;11.18;10.27;;;;;;;27.16;42.38;93128.66;5035266;28;20198;-70
2022/08/08 08:18:52;;;;;;;9.50;8.80;;;;;;;27.02;42.85;93127.78;5037312;28;20241;-71
2022/08/08 08:21:19;;;;;;;9.00;8.40;;;;;;;26.78;40.82;93118.34;5037925;28;20254;-71
2022/08/08 08:23:44;;;;;;;8.90;8.35;;;;;;;26.83;41.62;93123.38;5036946;28;20234;-71
2022/08/08 08:26:12;;;;;;;9.80;9.07;;;;;;;26.72;42.39;93125.16;5036874;28;20197;-70
2022/08/08 08:28:38;;;;;;;9.10;8.50;;;;;;;26.73;41.42;93105.25;5035655;28;20202;-71
2022/08/08 08:31:04;;;;;;;10.50;9.50;;;;;;;26.67;41.57;93118.22;5034255;28;20199;-71
2022/08/08 08:33:31;;;;;;;10.30;9.38;;;;;;;26.63;42.76;93117.38;5036503;28;20194;-71
2022/08/08 08:35:57;;;;;;;9.63;8.82;;;;;;;26.71;42.58;93112.88;5035838;28;20205;-70
2022/08/08 08:38:22;;;;;;;9.75;8.75;;;;;;;26.92;42.27;93123.06;5037755;28;20186;-70
2022/08/08 08:40:49;;;;;;;9.35;8.75;;;;;;;26.66;41.12;93118.59;5037668;28;20198;-71
2022/08/08 08:43:16;;;;;;;9.18;8.57;;;;;;;26.72;41.79;93115.19;5036943;28;20265;-70
2022/08/08 08:45:42;;;;;;;9.73;9.07;;;;;;;26.69;43.51;93102.53;5035701;28;20282;-71
2022/08/08 08:48:08;;;;;;;11.02;9.68;;;;;;;26.97;42.66;93112.81;5035487;28;20222;-70
2022/08/08 08:50:36;;;;;;;10.85;9.75;;;;;;;27.01;43.05;93096.72;5036380;28;20314;-71
2022/08/08 08:53:04;;;;;;;10.13;9.32;;;;;;;27.08;45.60;93110.22;5039260;28;20201;-69
2022/08/08 08:55:33;;;;;;;10.23;9.55;;;;;;;27.48;41.08;93118.28;5038570;28;20225;-70
2022/08/08 08:58:01;;;;;;;9.07;8.48;;;;;;;27.57;40.57;93099.94;5035930;28;20219;-71
2022/08/08 09:00:27;;;;;;;10.13;9.43;;;;;;;27.64;41.80;93098.09;5037816;28;20217;-70
2022/08/08 09:02:56;;;;;;;9.57;8.98;;;;;;;27.42;41.67;93092.94;5039212;28;20232;-70
2022/08/08 09:05:22;;;;;;;10.10;9.30;;;;;;;28.10;40.50;93106.47;5038160;28;20229;-68
2022/08/08 09:07:50;;;;;;;14.20;12.93;;;;;;;28.30;40.36;93091.63;5037033;28;20227;-72
2022/08/08 09:10:17;;;;;;;9.68;8.73;;;;;;;28.46;40.52;93097.47;5034949;28;20226;-73
2022/08/08 09:12:46;;;;;;;10.48;9.48;;;;;;;28.60;39.73;93105.63;5035860;28;20188;-72
2022/08/08 09:15:12;;;;;;;10.10;9.15;;;;;;;28.43;38.40;93103.59;5036750;28;20258;-71
2022/08/08 09:17:38;;;;;;;9.45;8.75;;;;;;;28.59;38.78;93106.00;5033069;28;20195;-70
2022/08/08 09:20:04;;;;;;;8.88;8.30;;;;;;;28.10;36.60;93088.47;5036504;28;20237;-74
2022/08/08 09:22:30;;;;;;;9.20;8.50;;;;;;;28.32;35.63;93100.09;5037980;28;20447;-71
2022/08/08 09:24:55;;;;;;;9.10;8.50;;;;;;;28.19;37.39;93082.75;5032261;28;20230;-71
2022/08/08 09:27:21;;;;;;;9.77;8.93;;;;;;;28.47;36.87;93099.03;5037126;28;20192;-71
2022/08/08 09:30:08;;;;;;;8.38;7.68;;;;;;;28.59;36.98;93097.94;5035155;28;20233;-71
2022/08/08 09:32:36;;;;;;;9.63;8.45;;;;;;;28.47;38.70;93090.97;5035946;28;20197;-71
2022/08/08 09:35:14;;;;;;;9.20;8.40;;;;;;;28.45;38.04;93079.03;5035249;28;20234;-70
2022/08/08 09:37:44;;;;;;;9.93;9.23;;;;;;;28.25;38.58;93086.63;5032826;28;20244;-70
2022/08/08 09:40:14;;;;;;;9.40;8.68;;;;;;;28.30;37.50;93082.81;5035710;28;21023;-70
2022/08/08 09:42:43;;;;;;;9.52;8.77;;;;;;;28.36;37.42;93082.06;5034131;28;20192;-70
2022/08/08 09:45:17;;;;;;;9.48;8.85;;;;;;;28.42;36.80;93080.56;5036739;28;20230;-69
2022/08/08 09:47:43;;;;;;;8.60;7.78;;;;;;;28.66;37.22;93063.78;5037313;28;20220;-71
2022/08/08 09:50:18;;;;;;;8.60;8.00;;;;;;;28.74;36.75;93068.03;5039540;28;20232;-71
2022/08/08 09:52:49;;;;;;;9.95;8.98;;;;;;;28.66;35.46;93069.16;5040271;28;20178;-71
2022/08/08 09:55:16;;;;;;;8.75;8.00;;;;;;;28.46;35.99;93059.06;5038832;28;20240;-71
2022/08/08 09:57:44;;;;;;;8.07;7.68;;;;;;;28.42;35.67;93047.56;5041337;28;20214;-71
2022/08/08 10:00:12;;;;;;;8.27;7.78;;;;;;;28.48;35.24;93057.59;5037100;28;20312;-71
2022/08/08 10:02:40;;;;;;;8.20;7.70;;;;;;;28.40;34.41;93053.31;5039857;28;20242;-72
2022/08/08 10:05:37;;;;;;;10.65;8.57;;;;;;;28.33;35.56;93050.56;5040231;28;20225;-71
2022/08/08 10:08:04;;;;;;;12.23;8.10;;;;;;;28.22;37.42;93037.09;5033642;28;20243;-72
2022/08/08 10:10:34;;;;;;;8.82;7.93;;;;;;;28.64;36.51;93043.81;5041023;28;20324;-72
2022/08/08 10:13:01;;;;;;;8.30;7.60;;;;;;;28.52;35.46;93036.88;5040094;28;20190;-70
2022/08/08 10:15:36;;;;;;;8.18;7.50;;;;;;;28.71;35.95;93031.16;5041202;28;20232;-72
2022/08/08 10:18:02;;;;;;;7.53;7.13;;;;;;;28.90;33.78;93024.66;5039485;28;20188;-71
2022/08/08 10:20:28;;;;;;;8.45;7.95;;;;;;;28.96;33.78;93037.38;5039603;28;20231;-70
2022/08/08 10:23:02;;;;;;;9.13;8.30;;;;;;;29.18;34.21;93035.50;5040815;28;20297;-71
2022/08/08 10:25:28;;;;;;;7.80;7.28;;;;;;;29.31;32.60;93028.59;5041496;28;20252;-71
2022/08/08 10:27:54;;;;;;;7.68;7.15;;;;;;;29.48;33.89;93023.19;5036197;28;20215;-70
2022/08/08 10:30:22;;;;;;;7.88;7.38;;;;;;;29.73;31.13;93001.63;5039220;28;20224;-70
2022/08/08 10:32:53;;;;;;;7.97;6.97;;;;;;;30.08;32.67;93016.94;5041938;28;20211;-72
2022/08/08 10:35:24;;;;;;;7.63;7.18;;;;;;;29.77;32.07;93029.34;5039579;28;20287;-72
2022/08/08 10:38:01;;;;;;;9.30;7.40;;;;;;;29.30;32.03;93018.97;5040313;28;20268;-71
2022/08/08 10:40:29;;;;;;;8.90;8.07;;;;;;;29.48;33.44;93020.47;5038191;28;20234;-73
2022/08/08 10:42:59;;;;;;;7.80;7.30;;;;;;;29.16;32.38;93014.34;5038447;28;20205;-72
2022/08/08 10:45:24;;;;;;;8.18;7.57;;;;;;;28.72;33.40;93002.38;5039969;28;20220;-72
2022/08/08 10:47:57;;;;;;;8.27;7.38;;;;;;;28.98;33.11;93016.22;5039331;28;20221;-72
2022/08/08 10:50:35;;;;;;;8.32;7.60;;;;;;;29.12;35.01;93005.50;5041383;28;20218;-73
2022/08/08 10:53:06;;;;;;;7.63;7.22;;;;;;;29.22;33.55;93007.44;5038183;28;20201;-72
2022/08/08 10:55:32;;;;;;;8.38;7.68;;;;;;;29.34;33.27;93001.66;5038448;28;20214;-72
2022/08/08 10:58:02;;;;;;;8.00;7.32;;;;;;;29.82;31.56;92995.84;5040593;28;20222;-76
2022/08/08 11:00:28;;;;;;;7.38;6.97;;;;;;;30.16;31.23;93007.69;5041149;28;20298;-70
2022/08/08 11:02:55;;;;;;;10.68;7.03;;;;;;;30.33;31.63;93004.19;5038961;28;20194;-70
2022/08/08 11:05:21;;;;;;;8.02;6.85;;;;;;;30.49;30.63;93004.50;5039271;28;20356;-71
2022/08/08 11:07:49;;;;;;;11.98;10.73;;;;;;;30.08;30.40;92971.94;5037558;28;20230;-71
2022/08/08 11:10:17;;;;;;;8.07;7.43;;;;;;;30.03;30.32;93006.56;5037491;28;20225;-70
2022/08/08 11:12:55;;;;;;;7.53;6.90;;;;;;;29.81;30.94;92999.72;5038301;28;20215;-68
2022/08/08 11:15:27;;;;;;;7.47;7.07;;;;;;;30.03;29.92;92999.25;5036103;28;20233;-69
2022/08/08 11:17:53;;;;;;;7.40;6.88;;;;;;;29.49;31.82;92981.66;5038845;28;20173;-69
2022/08/08 11:20:20;;;;;;;7.68;7.00;;;;;;;29.45;31.96;92993.56;5040531;28;20242;-69
2022/08/08 11:23:00;;;;;;;7.65;7.13;;;;;;;29.71;31.18;92999.31;5038181;28;20242;-68
2022/08/08 11:25:31;;;;;;;6.75;6.40;;;;;;;29.78;31.27;92982.41;5036968;28;20228;-68
2022/08/08 11:27:58;;;;;;;7.00;6.50;;;;;;;29.73;30.49;92970.09;5035402;28;20249;-68
2022/08/08 11:30:28;;;;;;;8.10;7.50;;;;;;;29.91;29.62;92993.53;5035591;28;20238;-68
2022/08/08 11:32:57;;;;;;;8.40;7.55;;;;;;;29.53;30.89;92987.03;5040916;28;20194;-68
2022/08/08 11:35:24;;;;;;;8.63;7.93;;;;;;;29.23;31.55;92992.06;5036850;28;20294;-68
2022/08/08 11:37:50;;;;;;;7.80;7.30;;;;;;;28.74;32.21;92981.25;5034246;28;20199;-69
2022/08/08 11:40:15;;;;;;;8.90;8.10;;;;;;;28.59;32.92;92980.47;5037262;28;20686;-68
2022/08/08 11:42:42;;;;;;;8.93;8.15;;;;;;;28.86;32.80;92986.28;5033424;28;20225;-68
2022/08/08 11:45:09;;;;;;;9.65;8.85;;;;;;;29.21;32.95;92986.31;5035660;28;20225;-68
2022/08/08 11:47:36;;;;;;;7.93;7.38;;;;;;;28.91;33.42;92992.03;5036239;28;20218;-69
2022/08/08 11:50:12;;;;;;;9.10;8.50;;;;;;;28.82;34.01;92980.88;5036490;28;20230;-68